sensor_id;sensor_type;location;lat;lon;timestamp;temperature;humidity
24860;DHT22;12936;52.006;4.350;2023-02-12T00:01:24;10.20;99.90
24860;DHT22;12936;52.006;4.350;2023-02-12T00:03:54;10.20;99.90
24860;DHT22;12936;52.006;4.350;2023-02-12T00:06:22;10.20;99.90
24860;DHT22;12936;52.006;4.350;2023-02-12T00:08:53;10.20;99.90
24860;DHT22;12936;52.006;4.350;2023-02-12T00:11:23;10.10;99.90
24860;DHT22;12936;52.006;4.350;2023-02-12T00:13:53;10.20;99.90
24860;DHT22;12936;52.006;4.350;2023-02-12T00:16:25;10.20;99.90
24860;DHT22;12936;52.006;4.350;2023-02-12T00:18:54;10.20;99.90
24860;DHT22;12936;52.006;4.350;2023-02-12T00:21:23;10.20;99.90
24860;DHT22;12936;52.006;4.350;2023-02-12T00:23:51;10.20;99.90
24860;DHT22;12936;52.006;4.350;2023-02-12T00:26:20;10.20;99.90
24860;DHT22;12936;52.006;4.350;2023-02-12T00:28:51;10.20;99.90
24860;DHT22;12936;52.006;4.350;2023-02-12T00:31:23;10.10;99.90
24860;DHT22;12936;52.006;4.350;2023-02-12T00:33:52;10.10;99.90
24860;DHT22;12936;52.006;4.350;2023-02-12T00:36:24;10.10;99.90
24860;DHT22;12936;52.006;4.350;2023-02-12T00:38:54;10.10;99.90
24860;DHT22;12936;52.006;4.350;2023-02-12T00:41:42;10.10;99.90
24860;DHT22;12936;52.006;4.350;2023-02-12T00:44:11;10.10;99.90
24860;DHT22;12936;52.006;4.350;2023-02-12T00:46:41;10.10;99.90
24860;DHT22;12936;52.006;4.350;2023-02-12T00:49:09;10.10;99.90
24860;DHT22;12936;52.006;4.350;2023-02-12T00:51:37;10.10;99.90
24860;DHT22;12936;52.006;4.350;2023-02-12T00:54:05;10.10;99.90
24860;DHT22;12936;52.006;4.350;2023-02-12T00:56:33;10.10;99.90
24860;DHT22;12936;52.006;4.350;2023-02-12T00:59:03;10.10;99.90
24860;DHT22;12936;52.006;4.350;2023-02-12T01:01:31;10.00;99.90
24860;DHT22;12936;52.006;4.350;2023-02-12T01:04:01;10.10;99.90
24860;DHT22;12936;52.006;4.350;2023-02-12T01:06:29;10.10;99.90
24860;DHT22;12936;52.006;4.350;2023-02-12T01:08:57;10.00;99.90
24860;DHT22;12936;52.006;4.350;2023-02-12T01:11:25;10.10;99.90
24860;DHT22;12936;52.006;4.350;2023-02-12T01:13:53;10.10;99.90
24860;DHT22;12936;52.006;4.350;2023-02-12T01:16:23;10.10;99.90
24860;DHT22;12936;52.006;4.350;2023-02-12T01:18:53;10.00;99.90
24860;DHT22;12936;52.006;4.350;2023-02-12T01:21:25;10.00;99.90
24860;DHT22;12936;52.006;4.350;2023-02-12T01:23:54;10.00;99.90
24860;DHT22;12936;52.006;4.350;2023-02-12T01:26:22;10.00;99.90
24860;DHT22;12936;52.006;4.350;2023-02-12T01:28:52;10.00;99.90
24860;DHT22;12936;52.006;4.350;2023-02-12T01:31:23;10.00;99.90
24860;DHT22;12936;52.006;4.350;2023-02-12T01:33:53;10.00;99.90
24860;DHT22;12936;52.006;4.350;2023-02-12T01:36:24;10.00;99.90
24860;DHT22;12936;52.006;4.350;2023-02-12T01:38:54;10.00;99.90
24860;DHT22;12936;52.006;4.350;2023-02-12T01:41:24;10.00;99.90
24860;DHT22;12936;52.006;4.350;2023-02-12T01:44:12;9.90;99.90
24860;DHT22;12936;52.006;4.350;2023-02-12T01:46:42;10.00;99.90
24860;DHT22;12936;52.006;4.350;2023-02-12T01:49:15;9.90;99.90
24860;DHT22;12936;52.006;4.350;2023-02-12T01:51:45;10.00;99.90
24860;DHT22;12936;52.006;4.350;2023-02-12T01:54:16;9.90;99.90
24860;DHT22;12936;52.006;4.350;2023-02-12T01:56:48;9.90;99.90
24860;DHT22;12936;52.006;4.350;2023-02-12T01:59:18;10.00;99.90
24860;DHT22;12936;52.006;4.350;2023-02-12T02:01:46;10.00;99.90
24860;DHT22;12936;52.006;4.350;2023-02-12T02:04:16;9.90;99.90
24860;DHT22;12936;52.006;4.350;2023-02-12T02:06:50;9.90;99.90
24860;DHT22;12936;52.006;4.350;2023-02-12T02:09:21;9.90;99.90
24860;DHT22;12936;52.006;4.350;2023-02-12T02:11:49;9.90;99.90
24860;DHT22;12936;52.006;4.350;2023-02-12T02:14:35;9.90;99.90
24860;DHT22;12936;52.006;4.350;2023-02-12T02:17:15;9.90;99.90
24860;DHT22;12936;52.006;4.350;2023-02-12T02:23:08;9.90;99.90
24860;DHT22;12936;52.006;4.350;2023-02-12T02:25:56;9.90;99.90
24860;DHT22;12936;52.006;4.350;2023-02-12T02:28:55;9.90;99.90
24860;DHT22;12936;52.006;4.350;2023-02-12T02:31:33;9.90;99.90
24860;DHT22;12936;52.006;4.350;2023-02-12T02:34:09;9.90;99.90
24860;DHT22;12936;52.006;4.350;2023-02-12T02:36:44;9.90;99.90
24860;DHT22;12936;52.006;4.350;2023-02-12T02:39:30;9.90;99.90
24860;DHT22;12936;52.006;4.350;2023-02-12T02:42:07;9.90;99.90
24860;DHT22;12936;52.006;4.350;2023-02-12T02:44:43;9.90;99.90
24860;DHT22;12936;52.006;4.350;2023-02-12T02:47:16;9.90;99.90
24860;DHT22;12936;52.006;4.350;2023-02-12T02:49:52;9.80;99.90
24860;DHT22;12936;52.006;4.350;2023-02-12T02:52:25;9.80;99.90
24860;DHT22;12936;52.006;4.350;2023-02-12T02:55:01;9.80;99.90
24860;DHT22;12936;52.006;4.350;2023-02-12T02:57:34;9.80;99.90
24860;DHT22;12936;52.006;4.350;2023-02-12T03:00:06;9.80;99.90
24860;DHT22;12936;52.006;4.350;2023-02-12T03:02:39;9.80;99.90
24860;DHT22;12936;52.006;4.350;2023-02-12T03:05:15;9.90;99.90
24860;DHT22;12936;52.006;4.350;2023-02-12T03:07:48;9.80;99.90
24860;DHT22;12936;52.006;4.350;2023-02-12T03:10:19;9.80;99.90
24860;DHT22;12936;52.006;4.350;2023-02-12T03:12:53;9.80;99.90
24860;DHT22;12936;52.006;4.350;2023-02-12T03:15:26;9.80;99.90
24860;DHT22;12936;52.006;4.350;2023-02-12T03:17:58;9.80;99.90
24860;DHT22;12936;52.006;4.350;2023-02-12T03:20:30;9.80;99.90
24860;DHT22;12936;52.006;4.350;2023-02-12T03:23:04;9.80;99.90
24860;DHT22;12936;52.006;4.350;2023-02-12T03:25:39;9.80;99.90
24860;DHT22;12936;52.006;4.350;2023-02-12T03:28:15;9.80;99.90
24860;DHT22;12936;52.006;4.350;2023-02-12T03:30:50;9.80;99.90
24860;DHT22;12936;52.006;4.350;2023-02-12T03:33:28;9.80;99.90
24860;DHT22;12936;52.006;4.350;2023-02-12T03:36:00;9.80;99.90
24860;DHT22;12936;52.006;4.350;2023-02-12T03:38:34;9.80;99.90
24860;DHT22;12936;52.006;4.350;2023-02-12T03:41:07;9.80;99.90
24860;DHT22;12936;52.006;4.350;2023-02-12T03:43:45;9.80;99.90
24860;DHT22;12936;52.006;4.350;2023-02-12T03:46:19;9.70;99.90
24860;DHT22;12936;52.006;4.350;2023-02-12T03:48:58;9.80;99.90
24860;DHT22;12936;52.006;4.350;2023-02-12T03:51:31;9.80;99.90
24860;DHT22;12936;52.006;4.350;2023-02-12T03:54:04;9.80;99.90
24860;DHT22;12936;52.006;4.350;2023-02-12T03:56:37;9.80;99.90
24860;DHT22;12936;52.006;4.350;2023-02-12T03:59:07;9.80;99.90
24860;DHT22;12936;52.006;4.350;2023-02-12T04:01:36;9.80;99.90
24860;DHT22;12936;52.006;4.350;2023-02-12T04:04:06;9.80;99.90
24860;DHT22;12936;52.006;4.350;2023-02-12T04:06:36;9.70;99.90
24860;DHT22;12936;52.006;4.350;2023-02-12T04:09:07;9.70;99.90
24860;DHT22;12936;52.006;4.350;2023-02-12T04:11:49;9.80;99.90
24860;DHT22;12936;52.006;4.350;2023-02-12T04:14:24;9.80;99.90
24860;DHT22;12936;52.006;4.350;2023-02-12T04:16:59;9.80;99.90
24860;DHT22;12936;52.006;4.350;2023-02-12T04:19:38;9.70;99.90
24860;DHT22;12936;52.006;4.350;2023-02-12T04:22:16;9.80;99.90
24860;DHT22;12936;52.006;4.350;2023-02-12T04:24:57;9.80;99.90
24860;DHT22;12936;52.006;4.350;2023-02-12T04:27:34;9.80;99.90
24860;DHT22;12936;52.006;4.350;2023-02-12T04:30:08;9.80;99.90
24860;DHT22;12936;52.006;4.350;2023-02-12T04:32:43;9.80;99.90
24860;DHT22;12936;52.006;4.350;2023-02-12T04:35:19;9.70;99.90
24860;DHT22;12936;52.006;4.350;2023-02-12T04:37:51;9.70;99.90
24860;DHT22;12936;52.006;4.350;2023-02-12T04:40:22;9.70;99.90
24860;DHT22;12936;52.006;4.350;2023-02-12T04:42:51;9.80;99.90
24860;DHT22;12936;52.006;4.350;2023-02-12T04:45:23;9.70;99.90
24860;DHT22;12936;52.006;4.350;2023-02-12T04:47:54;9.70;99.90
24860;DHT22;12936;52.006;4.350;2023-02-12T04:50:31;9.70;99.90
24860;DHT22;12936;52.006;4.350;2023-02-12T04:53:04;9.70;99.90
24860;DHT22;12936;52.006;4.350;2023-02-12T04:55:32;9.70;99.90
24860;DHT22;12936;52.006;4.350;2023-02-12T04:58:00;9.70;99.90
24860;DHT22;12936;52.006;4.350;2023-02-12T05:00:28;9.70;99.90
24860;DHT22;12936;52.006;4.350;2023-02-12T05:02:57;9.70;99.90
24860;DHT22;12936;52.006;4.350;2023-02-12T05:05:27;9.70;99.90
24860;DHT22;12936;52.006;4.350;2023-02-12T05:07:55;9.70;99.90
24860;DHT22;12936;52.006;4.350;2023-02-12T05:10:24;9.70;99.90
24860;DHT22;12936;52.006;4.350;2023-02-12T05:12:54;9.70;99.90
24860;DHT22;12936;52.006;4.350;2023-02-12T05:15:22;9.70;99.90
24860;DHT22;12936;52.006;4.350;2023-02-12T05:17:50;9.70;99.90
24860;DHT22;12936;52.006;4.350;2023-02-12T05:20:18;9.70;99.90
24860;DHT22;12936;52.006;4.350;2023-02-12T05:22:51;9.70;99.90
24860;DHT22;12936;52.006;4.350;2023-02-12T05:25:23;9.70;99.90
24860;DHT22;12936;52.006;4.350;2023-02-12T05:27:51;9.70;99.90
24860;DHT22;12936;52.006;4.350;2023-02-12T05:30:25;9.70;99.90
24860;DHT22;12936;52.006;4.350;2023-02-12T05:32:56;9.60;99.90
24860;DHT22;12936;52.006;4.350;2023-02-12T05:35:24;9.70;99.90
24860;DHT22;12936;52.006;4.350;2023-02-12T05:37:53;9.60;99.90
24860;DHT22;12936;52.006;4.350;2023-02-12T05:40:25;9.70;99.90
24860;DHT22;12936;52.006;4.350;2023-02-12T05:42:53;9.60;99.90
24860;DHT22;12936;52.006;4.350;2023-02-12T05:45:21;9.70;99.90
24860;DHT22;12936;52.006;4.350;2023-02-12T05:47:53;9.70;99.90
24860;DHT22;12936;52.006;4.350;2023-02-12T05:50:22;9.60;99.90
24860;DHT22;12936;52.006;4.350;2023-02-12T05:52:50;9.70;99.90
24860;DHT22;12936;52.006;4.350;2023-02-12T05:55:20;9.60;99.90
24860;DHT22;12936;52.006;4.350;2023-02-12T05:57:50;9.60;99.90
24860;DHT22;12936;52.006;4.350;2023-02-12T06:00:19;9.70;99.90
24860;DHT22;12936;52.006;4.350;2023-02-12T06:02:47;9.60;99.90
24860;DHT22;12936;52.006;4.350;2023-02-12T06:05:15;9.60;99.90
24860;DHT22;12936;52.006;4.350;2023-02-12T06:07:44;9.60;99.90
24860;DHT22;12936;52.006;4.350;2023-02-12T06:10:12;9.60;99.90
24860;DHT22;12936;52.006;4.350;2023-02-12T06:12:42;9.60;99.90
24860;DHT22;12936;52.006;4.350;2023-02-12T06:15:10;9.60;99.90
24860;DHT22;12936;52.006;4.350;2023-02-12T06:17:38;9.60;99.90
24860;DHT22;12936;52.006;4.350;2023-02-12T06:20:06;9.60;99.90
24860;DHT22;12936;52.006;4.350;2023-02-12T06:22:34;9.60;99.90
24860;DHT22;12936;52.006;4.350;2023-02-12T06:25:04;9.60;99.90
24860;DHT22;12936;52.006;4.350;2023-02-12T06:27:32;9.60;99.90
24860;DHT22;12936;52.006;4.350;2023-02-12T06:30:02;9.60;99.90
24860;DHT22;12936;52.006;4.350;2023-02-12T06:32:30;9.60;99.90
24860;DHT22;12936;52.006;4.350;2023-02-12T06:34:58;9.60;99.90
24860;DHT22;12936;52.006;4.350;2023-02-12T06:37:26;9.60;99.90
24860;DHT22;12936;52.006;4.350;2023-02-12T06:39:54;9.60;99.90
24860;DHT22;12936;52.006;4.350;2023-02-12T06:42:22;9.60;99.90
24860;DHT22;12936;52.006;4.350;2023-02-12T06:44:50;9.60;99.90
24860;DHT22;12936;52.006;4.350;2023-02-12T06:47:20;9.60;99.90
24860;DHT22;12936;52.006;4.350;2023-02-12T06:49:48;9.60;99.90
24860;DHT22;12936;52.006;4.350;2023-02-12T06:52:16;9.60;99.90
24860;DHT22;12936;52.006;4.350;2023-02-12T06:54:44;9.60;99.90
24860;DHT22;12936;52.006;4.350;2023-02-12T06:57:11;9.60;99.90
24860;DHT22;12936;52.006;4.350;2023-02-12T06:59:39;9.60;99.90
24860;DHT22;12936;52.006;4.350;2023-02-12T07:02:08;9.60;99.90
24860;DHT22;12936;52.006;4.350;2023-02-12T07:04:38;9.60;99.90
24860;DHT22;12936;52.006;4.350;2023-02-12T07:07:06;9.60;99.90
24860;DHT22;12936;52.006;4.350;2023-02-12T07:09:34;9.60;99.90
24860;DHT22;12936;52.006;4.350;2023-02-12T07:12:02;9.50;99.90
24860;DHT22;12936;52.006;4.350;2023-02-12T07:14:30;9.60;99.90
24860;DHT22;12936;52.006;4.350;2023-02-12T07:16:58;9.60;99.90
24860;DHT22;12936;52.006;4.350;2023-02-12T07:19:29;9.60;99.90
24860;DHT22;12936;52.006;4.350;2023-02-12T07:21:58;9.60;99.90
24860;DHT22;12936;52.006;4.350;2023-02-12T07:24:29;9.60;99.90
24860;DHT22;12936;52.006;4.350;2023-02-12T07:26:57;9.60;99.90
24860;DHT22;12936;52.006;4.350;2023-02-12T07:29:25;9.50;99.90
24860;DHT22;12936;52.006;4.350;2023-02-12T07:31:53;9.60;99.90
24860;DHT22;12936;52.006;4.350;2023-02-12T07:34:21;9.60;99.90
24860;DHT22;12936;52.006;4.350;2023-02-12T07:36:49;9.60;99.90
24860;DHT22;12936;52.006;4.350;2023-02-12T07:39:19;9.60;99.90
24860;DHT22;12936;52.006;4.350;2023-02-12T07:41:47;9.60;99.90
24860;DHT22;12936;52.006;4.350;2023-02-12T07:44:15;9.60;99.90
24860;DHT22;12936;52.006;4.350;2023-02-12T07:46:44;9.60;99.90
24860;DHT22;12936;52.006;4.350;2023-02-12T07:49:16;9.60;99.90
24860;DHT22;12936;52.006;4.350;2023-02-12T07:51:45;9.60;99.90
24860;DHT22;12936;52.006;4.350;2023-02-12T07:54:13;9.60;99.90
24860;DHT22;12936;52.006;4.350;2023-02-12T07:56:43;9.60;99.90
24860;DHT22;12936;52.006;4.350;2023-02-12T07:59:14;9.60;99.90
24860;DHT22;12936;52.006;4.350;2023-02-12T08:01:45;9.70;99.90
24860;DHT22;12936;52.006;4.350;2023-02-12T08:04:15;9.60;99.90
24860;DHT22;12936;52.006;4.350;2023-02-12T08:06:45;9.70;99.90
24860;DHT22;12936;52.006;4.350;2023-02-12T08:09:15;9.70;99.90
24860;DHT22;12936;52.006;4.350;2023-02-12T08:11:45;9.70;99.90
24860;DHT22;12936;52.006;4.350;2023-02-12T08:14:14;9.70;99.90
24860;DHT22;12936;52.006;4.350;2023-02-12T08:16:43;9.70;99.90
24860;DHT22;12936;52.006;4.350;2023-02-12T08:19:12;9.80;99.90
24860;DHT22;12936;52.006;4.350;2023-02-12T08:21:48;9.80;99.90
24860;DHT22;12936;52.006;4.350;2023-02-12T08:24:16;9.80;99.90
24860;DHT22;12936;52.006;4.350;2023-02-12T08:26:45;9.80;99.90
24860;DHT22;12936;52.006;4.350;2023-02-12T08:29:15;9.90;99.90
24860;DHT22;12936;52.006;4.350;2023-02-12T08:31:46;9.90;99.90
24860;DHT22;12936;52.006;4.350;2023-02-12T08:34:16;9.90;99.90
24860;DHT22;12936;52.006;4.350;2023-02-12T08:36:46;9.90;99.90
24860;DHT22;12936;52.006;4.350;2023-02-12T08:39:16;9.90;99.90
24860;DHT22;12936;52.006;4.350;2023-02-12T08:41:46;10.00;99.90
24860;DHT22;12936;52.006;4.350;2023-02-12T08:44:14;10.00;99.90
24860;DHT22;12936;52.006;4.350;2023-02-12T08:46:44;10.00;99.90
24860;DHT22;12936;52.006;4.350;2023-02-12T08:49:15;10.00;99.90
24860;DHT22;12936;52.006;4.350;2023-02-12T08:51:45;10.10;99.90
24860;DHT22;12936;52.006;4.350;2023-02-12T08:54:16;10.10;99.90
24860;DHT22;12936;52.006;4.350;2023-02-12T08:56:46;10.10;99.90
24860;DHT22;12936;52.006;4.350;2023-02-12T08:59:15;10.10;99.90
24860;DHT22;12936;52.006;4.350;2023-02-12T09:01:43;10.10;99.90
24860;DHT22;12936;52.006;4.350;2023-02-12T09:04:14;10.10;99.90
24860;DHT22;12936;52.006;4.350;2023-02-12T09:06:44;10.20;99.90
24860;DHT22;12936;52.006;4.350;2023-02-12T09:09:13;10.20;99.90
24860;DHT22;12936;52.006;4.350;2023-02-12T09:11:42;10.20;99.90
24860;DHT22;12936;52.006;4.350;2023-02-12T09:14:14;10.20;99.90
24860;DHT22;12936;52.006;4.350;2023-02-12T09:16:42;10.20;99.90
24860;DHT22;12936;52.006;4.350;2023-02-12T09:19:12;10.30;99.90
24860;DHT22;12936;52.006;4.350;2023-02-12T09:21:41;10.20;99.90
24860;DHT22;12936;52.006;4.350;2023-02-12T09:24:09;10.30;99.90
24860;DHT22;12936;52.006;4.350;2023-02-12T09:26:38;10.30;99.90
24860;DHT22;12936;52.006;4.350;2023-02-12T09:29:06;10.30;99.90
24860;DHT22;12936;52.006;4.350;2023-02-12T09:31:36;10.30;99.90
24860;DHT22;12936;52.006;4.350;2023-02-12T09:34:05;10.30;99.90
24860;DHT22;12936;52.006;4.350;2023-02-12T09:36:34;10.30;99.90
24860;DHT22;12936;52.006;4.350;2023-02-12T09:39:03;10.30;99.90
24860;DHT22;12936;52.006;4.350;2023-02-12T09:41:45;10.40;99.90
24860;DHT22;12936;52.006;4.350;2023-02-12T09:44:19;10.40;99.90
24860;DHT22;12936;52.006;4.350;2023-02-12T09:46:52;10.40;99.90
24860;DHT22;12936;52.006;4.350;2023-02-12T09:49:38;10.40;99.90
24860;DHT22;12936;52.006;4.350;2023-02-12T09:52:11;10.40;99.90
24860;DHT22;12936;52.006;4.350;2023-02-12T09:54:39;10.50;99.90
24860;DHT22;12936;52.006;4.350;2023-02-12T09:57:15;10.50;99.90
24860;DHT22;12936;52.006;4.350;2023-02-12T09:59:46;10.50;99.90
24860;DHT22;12936;52.006;4.350;2023-02-12T10:02:18;10.50;99.90
24860;DHT22;12936;52.006;4.350;2023-02-12T10:04:51;10.50;99.90
24860;DHT22;12936;52.006;4.350;2023-02-12T10:07:43;10.50;99.90
24860;DHT22;12936;52.006;4.350;2023-02-12T10:10:32;10.60;99.90
24860;DHT22;12936;52.006;4.350;2023-02-12T10:13:04;10.60;99.90
24860;DHT22;12936;52.006;4.350;2023-02-12T10:15:37;10.60;99.90
24860;DHT22;12936;52.006;4.350;2023-02-12T10:18:25;10.60;99.90
24860;DHT22;12936;52.006;4.350;2023-02-12T10:21:02;10.60;99.90
24860;DHT22;12936;52.006;4.350;2023-02-12T10:24:10;10.70;99.90
24860;DHT22;12936;52.006;4.350;2023-02-12T10:26:45;10.70;99.90
24860;DHT22;12936;52.006;4.350;2023-02-12T10:29:19;10.70;99.90
24860;DHT22;12936;52.006;4.350;2023-02-12T10:31:51;10.70;99.90
24860;DHT22;12936;52.006;4.350;2023-02-12T10:34:24;10.70;99.90
24860;DHT22;12936;52.006;4.350;2023-02-12T10:36:58;10.80;99.90
24860;DHT22;12936;52.006;4.350;2023-02-12T10:39:34;10.80;99.90
24860;DHT22;12936;52.006;4.350;2023-02-12T10:42:08;10.80;99.90
24860;DHT22;12936;52.006;4.350;2023-02-12T10:44:38;10.80;99.90
24860;DHT22;12936;52.006;4.350;2023-02-12T10:47:12;10.80;99.90
24860;DHT22;12936;52.006;4.350;2023-02-12T10:49:44;10.80;99.90
24860;DHT22;12936;52.006;4.350;2023-02-12T10:52:20;10.80;99.90
24860;DHT22;12936;52.006;4.350;2023-02-12T10:54:56;10.90;99.90
24860;DHT22;12936;52.006;4.350;2023-02-12T10:57:26;10.80;99.90
24860;DHT22;12936;52.006;4.350;2023-02-12T10:59:56;10.80;99.90
24860;DHT22;12936;52.006;4.350;2023-02-12T11:02:27;10.80;99.90
24860;DHT22;12936;52.006;4.350;2023-02-12T11:04:58;10.70;99.90
24860;DHT22;12936;52.006;4.350;2023-02-12T11:07:27;10.70;99.90
24860;DHT22;12936;52.006;4.350;2023-02-12T11:09:56;10.70;99.90
24860;DHT22;12936;52.006;4.350;2023-02-12T11:12:35;10.70;99.90
24860;DHT22;12936;52.006;4.350;2023-02-12T11:15:14;10.60;99.90
24860;DHT22;12936;52.006;4.350;2023-02-12T11:17:44;10.70;99.90
24860;DHT22;12936;52.006;4.350;2023-02-12T11:20:23;10.70;99.90
24860;DHT22;12936;52.006;4.350;2023-02-12T11:22:54;10.70;99.90
24860;DHT22;12936;52.006;4.350;2023-02-12T11:25:24;10.70;99.90
24860;DHT22;12936;52.006;4.350;2023-02-12T11:28:01;10.70;99.90
24860;DHT22;12936;52.006;4.350;2023-02-12T11:30:29;10.80;99.90
24860;DHT22;12936;52.006;4.350;2023-02-12T11:33:13;10.80;99.90
24860;DHT22;12936;52.006;4.350;2023-02-12T11:35:51;10.80;99.90
24860;DHT22;12936;52.006;4.350;2023-02-12T11:38:27;10.80;99.90
24860;DHT22;12936;52.006;4.350;2023-02-12T11:41:00;10.80;99.90
24860;DHT22;12936;52.006;4.350;2023-02-12T11:43:30;10.80;99.90
24860;DHT22;12936;52.006;4.350;2023-02-12T11:45:59;10.80;99.90
24860;DHT22;12936;52.006;4.350;2023-02-12T11:48:30;10.80;99.90
24860;DHT22;12936;52.006;4.350;2023-02-12T11:51:03;10.80;99.90
24860;DHT22;12936;52.006;4.350;2023-02-12T11:53:33;10.90;99.90
24860;DHT22;12936;52.006;4.350;2023-02-12T11:56:03;10.90;99.90
24860;DHT22;12936;52.006;4.350;2023-02-12T11:58:32;10.90;99.90
24860;DHT22;12936;52.006;4.350;2023-02-12T12:01:06;10.90;99.90
24860;DHT22;12936;52.006;4.350;2023-02-12T12:03:42;10.90;99.90
24860;DHT22;12936;52.006;4.350;2023-02-12T12:06:23;10.90;99.90
24860;DHT22;12936;52.006;4.350;2023-02-12T12:08:58;11.00;99.90
24860;DHT22;12936;52.006;4.350;2023-02-12T12:11:33;10.90;99.90
24860;DHT22;12936;52.006;4.350;2023-02-12T12:14:08;11.00;99.90
24860;DHT22;12936;52.006;4.350;2023-02-12T12:16:46;11.00;99.90
24860;DHT22;12936;52.006;4.350;2023-02-12T12:19:37;11.00;99.90
24860;DHT22;12936;52.006;4.350;2023-02-12T12:22:48;11.00;99.90
24860;DHT22;12936;52.006;4.350;2023-02-12T12:25:23;11.00;99.90
24860;DHT22;12936;52.006;4.350;2023-02-12T12:27:59;11.00;99.90
24860;DHT22;12936;52.006;4.350;2023-02-12T12:30:43;11.00;99.90
24860;DHT22;12936;52.006;4.350;2023-02-12T12:33:16;11.00;99.90
24860;DHT22;12936;52.006;4.350;2023-02-12T12:35:57;11.00;99.90
24860;DHT22;12936;52.006;4.350;2023-02-12T12:38:38;11.00;99.90
24860;DHT22;12936;52.006;4.350;2023-02-12T12:41:16;11.00;99.90
24860;DHT22;12936;52.006;4.350;2023-02-12T12:43:57;11.00;99.90
24860;DHT22;12936;52.006;4.350;2023-02-12T12:46:52;11.10;99.90
24860;DHT22;12936;52.006;4.350;2023-02-12T12:49:57;11.00;99.90
24860;DHT22;12936;52.006;4.350;2023-02-12T12:52:44;11.10;99.90
24860;DHT22;12936;52.006;4.350;2023-02-12T12:58:33;11.00;99.90
24860;DHT22;12936;52.006;4.350;2023-02-12T13:01:15;11.00;99.90
24860;DHT22;12936;52.006;4.350;2023-02-12T13:07:03;11.10;99.90
24860;DHT22;12936;52.006;4.350;2023-02-12T13:09:57;11.10;99.90
24860;DHT22;12936;52.006;4.350;2023-02-12T13:12:40;11.00;99.90
24860;DHT22;12936;52.006;4.350;2023-02-12T13:15:20;11.00;99.90
24860;DHT22;12936;52.006;4.350;2023-02-12T13:17:58;11.00;99.90
24860;DHT22;12936;52.006;4.350;2023-02-12T13:20:36;11.00;99.90
24860;DHT22;12936;52.006;4.350;2023-02-12T13:23:13;11.10;99.90
24860;DHT22;12936;52.006;4.350;2023-02-12T13:25:49;11.10;99.90
24860;DHT22;12936;52.006;4.350;2023-02-12T13:28:28;11.00;99.90
24860;DHT22;12936;52.006;4.350;2023-02-12T13:30:59;11.00;99.90
24860;DHT22;12936;52.006;4.350;2023-02-12T13:33:38;11.00;99.90
24860;DHT22;12936;52.006;4.350;2023-02-12T13:36:11;11.10;99.90
24860;DHT22;12936;52.006;4.350;2023-02-12T13:38:43;11.00;99.90
24860;DHT22;12936;52.006;4.350;2023-02-12T13:41:15;11.00;99.90
24860;DHT22;12936;52.006;4.350;2023-02-12T13:44:01;11.00;99.90
24860;DHT22;12936;52.006;4.350;2023-02-12T13:46:38;11.10;99.90
24860;DHT22;12936;52.006;4.350;2023-02-12T13:49:20;11.10;99.90
24860;DHT22;12936;52.006;4.350;2023-02-12T13:51:54;11.00;99.90
24860;DHT22;12936;52.006;4.350;2023-02-12T13:54:39;11.00;99.90
24860;DHT22;12936;52.006;4.350;2023-02-12T13:57:13;10.90;99.90
24860;DHT22;12936;52.006;4.350;2023-02-12T13:59:47;11.00;99.90
24860;DHT22;12936;52.006;4.350;2023-02-12T14:02:41;11.00;99.90
24860;DHT22;12936;52.006;4.350;2023-02-12T14:05:26;11.00;99.90
24860;DHT22;12936;52.006;4.350;2023-02-12T14:07:57;11.00;99.90
24860;DHT22;12936;52.006;4.350;2023-02-12T14:10:29;11.00;99.90
24860;DHT22;12936;52.006;4.350;2023-02-12T14:13:10;11.00;99.90
24860;DHT22;12936;52.006;4.350;2023-02-12T14:15:43;11.00;99.90
24860;DHT22;12936;52.006;4.350;2023-02-12T14:18:28;11.00;99.90
24860;DHT22;12936;52.006;4.350;2023-02-12T14:24:48;10.90;99.90
24860;DHT22;12936;52.006;4.350;2023-02-12T14:27:26;10.90;99.90
24860;DHT22;12936;52.006;4.350;2023-02-12T14:30:00;10.90;99.90
24860;DHT22;12936;52.006;4.350;2023-02-12T14:32:58;10.80;99.90
24860;DHT22;12936;52.006;4.350;2023-02-12T14:35:33;10.80;99.90
24860;DHT22;12936;52.006;4.350;2023-02-12T14:38:55;10.90;99.90
24860;DHT22;12936;52.006;4.350;2023-02-12T14:41:15;10.80;99.90
24860;DHT22;12936;52.006;4.350;2023-02-12T14:50:14;10.80;99.90
24860;DHT22;12936;52.006;4.350;2023-02-12T14:52:50;10.80;99.90
24860;DHT22;12936;52.006;4.350;2023-02-12T14:55:23;10.70;99.90
24860;DHT22;12936;52.006;4.350;2023-02-12T14:57:58;10.70;99.90
24860;DHT22;12936;52.006;4.350;2023-02-12T15:00:30;10.70;99.90
24860;DHT22;12936;52.006;4.350;2023-02-12T15:03:13;10.70;99.90
24860;DHT22;12936;52.006;4.350;2023-02-12T15:05:57;10.60;99.90
24860;DHT22;12936;52.006;4.350;2023-02-12T15:08:31;10.70;99.90
24860;DHT22;12936;52.006;4.350;2023-02-12T15:11:08;10.70;99.90
24860;DHT22;12936;52.006;4.350;2023-02-12T15:13:48;10.60;99.90
24860;DHT22;12936;52.006;4.350;2023-02-12T15:16:34;10.60;99.90
24860;DHT22;12936;52.006;4.350;2023-02-12T15:19:06;10.60;99.90
24860;DHT22;12936;52.006;4.350;2023-02-12T15:21:39;10.60;99.90
24860;DHT22;12936;52.006;4.350;2023-02-12T15:24:09;10.60;99.90
24860;DHT22;12936;52.006;4.350;2023-02-12T15:26:39;10.60;99.90
24860;DHT22;12936;52.006;4.350;2023-02-12T15:29:20;10.60;99.90
24860;DHT22;12936;52.006;4.350;2023-02-12T15:31:53;10.50;99.90
24860;DHT22;12936;52.006;4.350;2023-02-12T15:34:24;10.50;99.90
24860;DHT22;12936;52.006;4.350;2023-02-12T15:36:56;10.50;99.90
24860;DHT22;12936;52.006;4.350;2023-02-12T15:39:25;10.50;99.90
24860;DHT22;12936;52.006;4.350;2023-02-12T15:41:54;10.50;99.90
24860;DHT22;12936;52.006;4.350;2023-02-12T15:44:28;10.40;99.90
24860;DHT22;12936;52.006;4.350;2023-02-12T15:46:59;10.40;99.90
24860;DHT22;12936;52.006;4.350;2023-02-12T15:49:31;10.40;99.90
24860;DHT22;12936;52.006;4.350;2023-02-12T15:52:02;10.40;99.90
24860;DHT22;12936;52.006;4.350;2023-02-12T15:54:32;10.40;99.90
24860;DHT22;12936;52.006;4.350;2023-02-12T15:57:00;10.40;99.90
24860;DHT22;12936;52.006;4.350;2023-02-12T15:59:30;10.40;99.90
24860;DHT22;12936;52.006;4.350;2023-02-12T16:02:00;10.40;99.90
24860;DHT22;12936;52.006;4.350;2023-02-12T16:04:31;10.30;99.90
24860;DHT22;12936;52.006;4.350;2023-02-12T16:07:00;10.40;99.90
24860;DHT22;12936;52.006;4.350;2023-02-12T16:09:29;10.40;99.90
24860;DHT22;12936;52.006;4.350;2023-02-12T16:12:00;10.40;99.90
24860;DHT22;12936;52.006;4.350;2023-02-12T16:14:35;10.30;99.90
24860;DHT22;12936;52.006;4.350;2023-02-12T16:17:19;10.30;99.90
24860;DHT22;12936;52.006;4.350;2023-02-12T16:19:54;10.30;99.90
24860;DHT22;12936;52.006;4.350;2023-02-12T16:22:25;10.30;99.90
24860;DHT22;12936;52.006;4.350;2023-02-12T16:24:54;10.30;99.90
24860;DHT22;12936;52.006;4.350;2023-02-12T16:27:25;10.30;99.90
24860;DHT22;12936;52.006;4.350;2023-02-12T16:29:57;10.20;99.90
24860;DHT22;12936;52.006;4.350;2023-02-12T16:32:29;10.30;99.90
24860;DHT22;12936;52.006;4.350;2023-02-12T16:35:00;10.20;99.90